Time;durP1;ratioP1;P1;durP2;ratioP2;P2;SDS_P1;SDS_P2;PMS_P1;PMS_P2;Temp;Humidity;BMP_temperature;BMP_pressure;BME280_temperature;BME280_humidity;BME280_pressure;Samples;Min_cycle;Max_cycle;Signal;HPM_P1;HPM_P2
2020/12/07 00:02:25;;;;;;;;;12.00;11.25;;;;;-1.03;62.61;102133.28;3725936;37;20283;-65
2020/12/07 00:04:51;;;;;;;;;10.50;9.00;;;;;-1.01;62.78;102126.94;3729169;37;20300;-66
2020/12/07 00:07:18;;;;;;;;;9.50;8.25;;;;;-1.01;62.48;102126.94;3732147;37;20247;-64
2020/12/07 00:09:46;;;;;;;;;10.00;9.00;;;;;-1.03;62.25;102131.47;3726148;38;20289;-67
2020/12/07 00:12:13;;;;;;;;;13.00;11.00;;;;;-1.03;62.47;102136.78;3731690;37;20286;-64
2020/12/07 00:14:40;;;;;;;;;10.00;8.75;;;;;-0.98;62.18;102141.03;3731438;37;20275;-64
2020/12/07 00:17:07;;;;;;;;;12.25;9.00;;;;;-1.10;61.77;102129.19;3725645;37;20202;-64
2020/12/07 00:19:34;;;;;;;;;11.25;9.75;;;;;-1.13;61.97;102119.56;3725476;38;20319;-64
2020/12/07 00:22:02;;;;;;;;;7.50;7.25;;;;;-1.14;61.19;102127.63;3725714;37;20286;-65
2020/12/07 00:24:28;;;;;;;;;9.75;8.00;;;;;-1.15;61.00;102137.38;3725214;38;20250;-64
2020/12/07 00:26:55;;;;;;;;;9.25;7.25;;;;;-1.21;60.94;102124.38;3725546;37;20213;-64
2020/12/07 00:29:22;;;;;;;;;11.75;6.00;;;;;-1.23;61.31;102136.00;3725614;38;20237;-63
2020/12/07 00:31:52;;;;;;;;;12.75;8.50;;;;;-1.25;61.90;102130.75;3725778;38;20222;-64
2020/12/07 00:34:18;;;;;;;;;13.50;11.00;;;;;-1.19;61.67;102138.44;3725739;37;20210;-63
2020/12/07 00:36:47;;;;;;;;;12.25;11.50;;;;;-1.17;61.65;102139.25;3726133;38;20242;-61
2020/12/07 00:39:15;;;;;;;;;9.25;7.50;;;;;-1.17;61.60;102141.91;3725756;37;20249;-64
2020/12/07 00:41:41;;;;;;;;;8.50;7.25;;;;;-1.12;61.60;102150.53;3727264;38;20209;-64
2020/12/07 00:44:09;;;;;;;;;13.75;11.00;;;;;-1.13;61.51;102155.91;3725680;37;20172;-61
2020/12/07 00:46:37;;;;;;;;;12.25;8.00;;;;;-1.16;61.02;102151.59;3725558;37;20260;-63
2020/12/07 00:49:04;;;;;;;;;12.00;9.75;;;;;-1.23;61.42;102151.94;3725136;38;20191;-63
2020/12/07 00:51:30;;;;;;;;;13.25;10.00;;;;;-1.31;60.76;102154.94;3725614;38;20243;-63
2020/12/07 00:53:57;;;;;;;;;12.00;10.00;;;;;-1.35;61.49;102140.94;3725120;37;20343;-62
2020/12/07 00:56:23;;;;;;;;;12.75;10.50;;;;;-1.31;61.50;102144.31;3725558;37;20241;-64
2020/12/07 00:58:50;;;;;;;;;12.50;8.50;;;;;-1.33;61.62;102144.38;3725604;37;20246;-63
2020/12/07 01:01:19;;;;;;;;;15.75;12.50;;;;;-1.36;61.56;102131.22;3725523;38;20208;-63
2020/12/07 01:03:45;;;;;;;;;10.50;10.50;;;;;-1.37;61.73;102144.59;3725583;38;20280;-64
2020/12/07 01:06:19;;;;;;;;;10.75;7.75;;;;;-1.44;61.81;102151.09;3725664;38;20171;-65
2020/12/07 01:08:45;;;;;;;;;11.75;10.50;;;;;-1.47;61.89;102154.75;3725477;38;20189;-63
2020/12/07 01:11:13;;;;;;;;;12.75;11.00;;;;;-1.51;61.73;102144.31;3725645;37;20230;-62
2020/12/07 01:13:40;;;;;;;;;4.75;4.50;;;;;-1.50;61.87;102146.91;3725619;37;20229;-63
2020/12/07 01:16:07;;;;;;;;;11.75;8.75;;;;;-1.52;61.79;102137.28;3725678;37;20142;-62
2020/12/07 01:18:40;;;;;;;;;11.50;10.00;;;;;-1.68;61.83;102132.69;3725668;38;20204;-62
2020/12/07 01:21:09;;;;;;;;;18.50;11.00;;;;;-1.83;61.69;102121.84;3725644;37;20181;-61
2020/12/07 01:23:37;;;;;;;;;12.50;11.50;;;;;-1.97;62.10;102111.81;3725579;38;20224;-63
2020/12/07 01:26:04;;;;;;;;;19.00;11.75;;;;;-2.04;62.70;102113.00;3725603;38;21174;-63
2020/12/07 01:28:31;;;;;;;;;12.00;11.25;;;;;-2.03;62.32;102117.41;3725419;37;20250;-63
2020/12/07 01:30:58;;;;;;;;;15.25;10.50;;;;;-2.09;62.52;102129.16;3725666;37;21169;-61
2020/12/07 01:33:25;;;;;;;;;10.50;7.50;;;;;-2.11;62.61;102117.75;3725578;38;20200;-61
2020/12/07 01:35:53;;;;;;;;;11.00;9.00;;;;;-2.22;62.51;102124.41;3725173;37;21141;-62
2020/12/07 01:38:21;;;;;;;;;12.25;8.50;;;;;-2.24;63.21;102119.19;3725157;37;21139;-63
2020/12/07 01:40:50;;;;;;;;;11.00;10.25;;;;;-2.26;63.04;102113.06;3725246;38;21140;-62
2020/12/07 01:43:18;;;;;;;;;7.50;7.50;;;;;-2.27;63.02;102098.09;3725259;37;21182;-64
2020/12/07 01:45:45;;;;;;;;;12.00;10.50;;;;;-2.41;63.01;102108.41;3725393;37;21085;-64
2020/12/07 01:48:13;;;;;;;;;12.50;10.50;;;;;-2.45;63.67;102105.00;3725366;37;21183;-63
2020/12/07 01:50:43;;;;;;;;;9.75;8.25;;;;;-2.55;63.72;102103.66;3725640;37;21141;-64
2020/12/07 01:53:11;;;;;;;;;10.75;6.50;;;;;-2.58;64.19;102106.44;3725722;37;21137;-63
2020/12/07 01:55:44;;;;;;;;;12.00;7.00;;;;;-2.66;63.89;102103.25;3725534;37;21085;-63
2020/12/07 01:58:11;;;;;;;;;9.25;8.25;;;;;-2.77;64.23;102106.31;3725475;38;21053;-62
2020/12/07 02:00:41;;;;;;;;;15.00;14.00;;;;;-2.86;64.60;102108.47;3725146;37;21188;-63
2020/12/07 02:03:10;;;;;;;;;17.75;14.00;;;;;-2.91;65.65;102111.28;3725508;38;21137;-64
2020/12/07 02:05:42;;;;;;;;;14.50;12.00;;;;;-2.88;65.82;102110.31;3725329;38;21180;-64
2020/12/07 02:08:16;;;;;;;;;21.25;18.50;;;;;-2.94;65.80;102102.59;3725003;37;21180;-64
2020/12/07 02:10:45;;;;;;;;;19.00;14.75;;;;;-2.80;66.61;102117.03;3725538;38;21250;-64
2020/12/07 02:13:13;;;;;;;;;16.00;14.00;;;;;-2.93;66.47;102110.47;3725163;37;21277;-64
2020/12/07 02:15:39;;;;;;;;;12.50;9.25;;;;;-2.93;66.61;102101.69;3725543;37;21231;-63
2020/12/07 02:18:07;;;;;;;;;15.50;13.00;;;;;-3.05;66.75;102103.88;3725490;37;21273;-63
2020/12/07 02:20:34;;;;;;;;;14.00;10.75;;;;;-3.05;67.13;102106.50;3725466;37;21162;-62
2020/12/07 02:23:03;;;;;;;;;11.50;10.50;;;;;-3.05;67.34;102111.81;3725644;38;21115;-62
2020/12/07 02:25:30;;;;;;;;;13.00;11.50;;;;;-2.98;66.83;102104.50;3724898;37;21039;-64
2020/12/07 02:27:57;;;;;;;;;14.25;11.25;;;;;-2.93;67.01;102105.19;3724548;38;21118;-64
2020/12/07 02:30:25;;;;;;;;;15.25;11.00;;;;;-2.82;66.64;102118.03;3725058;37;21215;-61
2020/12/07 02:32:52;;;;;;;;;11.75;10.50;;;;;-2.95;66.85;102132.66;3725233;37;21102;-64
2020/12/07 02:35:19;;;;;;;;;13.75;10.50;;;;;-3.03;66.48;102114.41;3725622;37;21110;-64
2020/12/07 02:37:48;;;;;;;;;17.00;14.25;;;;;-3.04;66.92;102115.31;3725468;37;21095;-64
2020/12/07 02:40:16;;;;;;;;;11.50;10.75;;;;;-3.02;66.96;102106.41;3725466;37;21210;-64
2020/12/07 02:42:43;;;;;;;;;15.25;12.50;;;;;-3.20;66.99;102112.41;3725187;37;21088;-63
2020/12/07 02:45:15;;;;;;;;;11.00;10.50;;;;;-3.25;67.29;102113.50;3725673;38;21140;-64
2020/12/07 02:47:42;;;;;;;;;10.25;10.00;;;;;-3.31;67.01;102114.59;3725620;38;21129;-63
2020/12/07 02:50:11;;;;;;;;;14.25;11.75;;;;;-3.24;67.17;102118.75;3725448;37;21072;-64
2020/12/07 02:52:38;;;;;;;;;16.00;13.25;;;;;-3.26;67.28;102101.19;3725499;37;21101;-64
2020/12/07 02:55:09;;;;;;;;;16.50;15.25;;;;;-3.19;67.07;102113.28;3725596;37;21116;-65
2020/12/07 02:57:40;;;;;;;;;12.00;11.75;;;;;-3.21;67.35;102117.78;3725173;38;21101;-65
2020/12/07 03:00:08;;;;;;;;;8.50;4.00;;;;;-3.13;67.47;102116.56;3726326;37;21069;-65
2020/12/07 03:02:37;;;;;;;;;4.75;4.75;;;;;-3.15;67.50;102126.34;3728208;37;21065;-63
2020/12/07 03:05:09;;;;;;;;;11.75;8.00;;;;;-3.14;67.35;102111.34;3728520;38;20975;-64
2020/12/07 03:07:35;;;;;;;;;11.00;10.75;;;;;-3.26;67.41;102091.47;3727100;38;21150;-63
2020/12/07 03:10:04;;;;;;;;;16.50;13.00;;;;;-3.21;67.60;102110.69;3726133;37;21036;-64
2020/12/07 03:12:31;;;;;;;;;14.00;12.00;;;;;-3.25;67.42;102108.22;3726081;38;21066;-63
2020/12/07 03:14:58;;;;;;;;;17.00;15.00;;;;;-3.27;67.79;102120.66;3726078;37;21052;-64
2020/12/07 03:17:24;;;;;;;;;17.00;13.00;;;;;-3.16;68.23;102127.28;3727557;37;21093;-63
2020/12/07 03:19:50;;;;;;;;;14.25;12.25;;;;;-3.11;68.00;102120.00;3725453;37;21177;-63
2020/12/07 03:22:21;;;;;;;;;14.50;11.75;;;;;-3.09;68.18;102122.59;3725598;38;21055;-63
2020/12/07 03:24:47;;;;;;;;;12.00;7.75;;;;;-3.11;67.60;102127.06;3725638;37;21087;-64
2020/12/07 03:27:14;;;;;;;;;10.75;8.00;;;;;-3.22;68.13;102124.00;3725121;37;20994;-64
2020/12/07 03:29:40;;;;;;;;;14.75;8.25;;;;;-3.22;68.36;102121.34;3725523;37;21029;-62
2020/12/07 03:32:07;;;;;;;;;13.50;10.75;;;;;-3.35;68.01;102115.63;3725653;37;21075;-63
2020/12/07 03:34:35;;;;;;;;;11.50;10.00;;;;;-3.32;68.75;102118.16;3725161;37;21021;-63
2020/12/07 03:37:05;;;;;;;;;15.25;12.75;;;;;-3.27;68.60;102116.22;3725508;37;21011;-63
2020/12/07 03:39:32;;;;;;;;;14.00;11.25;;;;;-3.24;68.51;102121.41;3725468;38;21030;-62
2020/12/07 03:41:59;;;;;;;;;16.75;11.75;;;;;-3.26;68.77;102117.94;3725564;37;21039;-63
2020/12/07 03:44:25;;;;;;;;;10.25;8.50;;;;;-3.26;68.99;102112.66;3725557;37;21048;-63
2020/12/07 03:46:51;;;;;;;;;15.50;14.00;;;;;-3.40;68.79;102109.66;3725494;37;21097;-63
2020/12/07 03:49:18;;;;;;;;;19.50;14.25;;;;;-3.44;69.33;102116.84;3725392;37;21017;-63
2020/12/07 03:51:45;;;;;;;;;11.00;10.00;;;;;-3.47;69.08;102113.44;3725664;37;21117;-62
2020/12/07 03:54:12;;;;;;;;;7.00;3.00;;;;;-3.47;69.23;102121.37;3725493;37;21073;-63
2020/12/07 03:56:38;;;;;;;;;19.50;13.00;;;;;-3.54;69.42;102123.38;3725491;37;21008;-63
2020/12/07 03:59:05;;;;;;;;;21.25;16.00;;;;;-3.46;70.16;102112.50;3725542;37;21019;-63
2020/12/07 04:01:32;;;;;;;;;13.00;11.00;;;;;-3.48;69.76;102112.56;3725650;38;21027;-63
2020/12/07 04:04:04;;;;;;;;;24.00;20.50;;;;;-3.56;69.96;102113.75;3725652;37;21028;-63
2020/12/07 04:06:36;;;;;;;;;16.50;15.00;;;;;-3.62;70.17;102113.97;3725665;38;21036;-63
2020/12/07 04:09:11;;;;;;;;;8.75;8.00;;;;;-3.75;70.25;102111.81;3725507;37;21010;-63
2020/12/07 04:11:38;;;;;;;;;14.75;13.75;;;;;-3.70;70.67;102112.50;3725239;37;21071;-64
2020/12/07 04:14:04;;;;;;;;;16.75;13.50;;;;;-3.71;71.05;102118.72;3725731;37;21018;-62
2020/12/07 04:16:32;;;;;;;;;18.75;14.50;;;;;-3.65;71.05;102120.28;3725628;37;20998;-63
2020/12/07 04:18:58;;;;;;;;;17.00;16.25;;;;;-3.68;70.93;102118.59;3725636;37;21098;-63
2020/12/07 04:21:24;;;;;;;;;22.25;17.75;;;;;-3.67;71.37;102124.75;3725718;38;20952;-61
2020/12/07 04:23:51;;;;;;;;;16.25;16.00;;;;;-3.68;71.18;102115.97;3725921;38;21074;-63
2020/12/07 04:26:17;;;;;;;;;19.50;17.50;;;;;-3.70;71.27;102132.81;3725708;38;21086;-63
2020/12/07 04:28:44;;;;;;;;;25.75;20.25;;;;;-3.83;71.57;102113.84;3725726;38;20965;-62
2020/12/07 04:31:11;;;;;;;;;19.25;15.25;;;;;-3.72;71.44;102124.91;3726007;38;21057;-64
2020/12/07 04:33:38;;;;;;;;;25.50;17.25;;;;;-3.84;71.94;102129.78;3725584;37;21056;-62
2020/12/07 04:36:05;;;;;;;;;16.75;8.00;;;;;-3.76;72.60;102128.59;3725656;37;21052;-63
2020/12/07 04:38:34;;;;;;;;;23.25;18.50;;;;;-3.78;72.67;102125.13;3725599;37;20976;-63
2020/12/07 04:41:04;;;;;;;;;27.75;20.25;;;;;-3.77;72.48;102131.28;3725572;37;21067;-64
2020/12/07 04:43:33;;;;;;;;;23.75;16.00;;;;;-3.82;72.78;102117.34;3725226;37;21033;-64
2020/12/07 04:45:59;;;;;;;;;17.00;15.75;;;;;-3.82;72.91;102120.00;3725477;37;21069;-63
2020/12/07 04:48:27;;;;;;;;;13.00;10.25;;;;;-3.83;72.63;102123.56;3725329;38;20998;-63
2020/12/07 04:50:56;;;;;;;;;19.00;14.25;;;;;-3.96;72.88;102127.53;3725657;38;20912;-63
2020/12/07 04:53:25;;;;;;;;;16.75;13.50;;;;;-4.00;73.53;102117.06;3725443;37;20952;-63
2020/12/07 04:55:51;;;;;;;;;14.00;8.00;;;;;-4.02;74.16;102120.69;3725607;38;21034;-62
2020/12/07 04:58:19;;;;;;;;;22.25;17.25;;;;;-3.95;74.07;102123.97;3725554;38;20918;-62
2020/12/07 05:00:47;;;;;;;;;17.00;16.25;;;;;-3.86;73.87;102123.66;3725648;37;21023;-62
2020/12/07 05:03:14;;;;;;;;;25.75;21.50;;;;;-3.74;74.13;102116.19;3725253;37;21003;-63
2020/12/07 05:05:42;;;;;;;;;26.00;17.00;;;;;-3.77;73.92;102102.19;3725599;38;21013;-63
2020/12/07 05:08:09;;;;;;;;;18.25;13.00;;;;;-3.72;73.54;102109.03;3725570;37;21016;-64
2020/12/07 05:10:43;;;;;;;;;37.50;21.75;;;;;-3.74;73.51;102110.03;3725574;38;20997;-62
2020/12/07 05:16:03;;;;;;;;;19.25;16.00;;;;;-3.78;73.78;102106.62;3725619;38;20936;-62
2020/12/07 05:18:35;;;;;;;;;20.00;15.75;;;;;-3.74;73.86;102102.94;3725661;38;21006;-63
2020/12/07 05:21:03;;;;;;;;;23.75;18.50;;;;;-3.78;73.97;102098.69;3725543;37;21016;-63
2020/12/07 05:23:35;;;;;;;;;23.25;22.25;;;;;-3.75;73.86;102108.28;3725939;38;20980;-62
2020/12/07 05:26:09;;;;;;;;;29.00;22.50;;;;;-3.57;73.95;102112.91;3726172;38;20988;-65
2020/12/07 05:28:53;;;;;;;;;26.50;19.00;;;;;-3.57;73.62;102122.63;3726041;37;21018;-64
2020/12/07 05:31:22;;;;;;;;;27.25;23.25;;;;;-3.46;74.09;102113.38;3726148;37;21012;-62
2020/12/07 05:33:49;;;;;;;;;23.00;20.00;;;;;-3.56;73.93;102106.69;3725540;37;20991;-64
2020/12/07 05:36:19;;;;;;;;;20.00;17.00;;;;;-3.41;73.96;102124.66;3725968;37;20995;-63
2020/12/07 05:38:53;;;;;;;;;26.25;23.00;;;;;-3.35;74.04;102115.63;3726147;37;20947;-62
2020/12/07 05:41:23;;;;;;;;;24.75;20.75;;;;;-3.30;73.82;102116.31;3726240;37;21001;-63
2020/12/07 05:43:54;;;;;;;;;35.75;25.50;;;;;-3.21;73.97;102126.59;3726710;38;20951;-64
2020/12/07 05:46:28;;;;;;;;;33.00;26.75;;;;;-3.14;73.69;102120.12;3726406;37;20963;-63
2020/12/07 05:48:56;;;;;;;;;35.00;32.50;;;;;-3.10;73.68;102121.72;3726741;37;20957;-63
2020/12/07 05:51:26;;;;;;;;;20.50;14.50;;;;;-3.01;73.90;102129.31;3727661;38;20968;-62
2020/12/07 05:53:53;;;;;;;;;28.75;20.00;;;;;-2.90;73.71;102133.34;3725991;37;20925;-63
2020/12/07 05:56:29;;;;;;;;;32.00;28.50;;;;;-2.79;73.94;102128.50;3726203;37;20953;-63
2020/12/07 05:59:13;;;;;;;;;19.25;16.50;;;;;-2.90;73.39;102117.44;3728257;37;20928;-65
2020/12/07 06:01:47;;;;;;;;;34.25;26.00;;;;;-2.88;73.47;102128.84;3730412;37;20957;-63
2020/12/07 06:04:17;;;;;;;;;31.50;25.25;;;;;-2.90;73.47;102133.34;3726599;38;20919;-64
2020/12/07 06:06:49;;;;;;;;;25.00;19.75;;;;;-2.83;73.82;102126.88;3730111;38;20969;-64
2020/12/07 06:09:22;;;;;;;;;23.25;19.25;;;;;-2.84;73.70;102130.47;3729827;37;20911;-63
2020/12/07 06:11:57;;;;;;;;;27.25;20.00;;;;;-2.74;73.84;102131.84;3726246;37;20945;-62
2020/12/07 06:14:26;;;;;;;;;18.75;15.00;;;;;-2.63;73.69;102124.31;3725745;37;20911;-64
2020/12/07 06:16:54;;;;;;;;;26.25;20.00;;;;;-2.64;73.32;102121.72;3725566;38;20867;-64
2020/12/07 06:19:21;;;;;;;;;26.25;22.25;;;;;-2.78;73.53;102115.19;3725747;38;20892;-62
2020/12/07 06:21:58;;;;;;;;;31.50;20.75;;;;;-2.57;73.67;102129.34;3725881;38;20926;-63
2020/12/07 06:24:49;;;;;;;;;20.00;16.00;;;;;-2.52;73.22;102131.81;3725701;38;20919;-64
2020/12/07 06:27:16;;;;;;;;;17.75;14.75;;;;;-2.47;73.23;102133.38;3725751;38;20939;-63
2020/12/07 06:30:20;;;;;;;;;28.00;23.50;;;;;-2.45;73.20;102139.47;3725800;38;20906;-63
2020/12/07 06:32:53;;;;;;;;;28.50;24.50;;;;;-2.35;72.86;102139.97;3725747;38;20872;-63
2020/12/07 06:35:21;;;;;;;;;24.00;21.75;;;;;-2.42;72.46;102135.84;3726022;37;20916;-64
2020/12/07 06:37:51;;;;;;;;;29.25;24.25;;;;;-2.43;72.65;102150.88;3725849;38;20814;-63
2020/12/07 06:40:25;;;;;;;;;26.00;22.75;;;;;-2.42;72.88;102144.66;3725833;37;20789;-64
2020/12/07 06:42:51;;;;;;;;;30.50;26.50;;;;;-2.52;72.50;102119.44;3725943;38;20892;-63
2020/12/07 06:45:29;;;;;;;;;27.50;24.75;;;;;-2.43;72.53;102147.34;3725844;37;20886;-64
2020/12/07 06:48:11;;;;;;;;;25.00;22.50;;;;;-2.36;72.30;102146.19;3726219;38;20879;-65
2020/12/07 06:50:43;;;;;;;;;23.00;21.75;;;;;-2.30;72.21;102145.94;3725864;37;20892;-64
2020/12/07 06:53:40;;;;;;;;;28.50;25.00;;;;;-2.27;72.71;102139.66;3725356;38;20894;-64
2020/12/07 06:56:08;;;;;;;;;23.75;18.50;;;;;-2.21;72.35;102131.44;3725731;38;20739;-63
2020/12/07 06:58:39;;;;;;;;;34.50;23.00;;;;;-2.14;71.78;102135.56;3725656;37;20861;-63
2020/12/07 07:01:14;;;;;;;;;19.50;15.75;;;;;-2.11;71.68;102143.41;3725658;37;20873;-63
2020/12/07 07:03:52;;;;;;;;;29.50;25.75;;;;;-2.12;72.78;102139.88;3725693;38;20865;-62
2020/12/07 07:06:23;;;;;;;;;25.50;22.00;;;;;-1.36;72.70;102135.69;3725774;37;20840;-63
2020/12/07 07:08:53;;;;;;;;;29.25;26.25;;;;;-1.70;71.52;102129.22;3725675;37;20869;-64
2020/12/07 07:11:21;;;;;;;;;23.75;19.75;;;;;-1.86;71.35;102128.16;3725615;37;20752;-62
2020/12/07 07:13:51;;;;;;;;;20.75;16.00;;;;;-1.73;71.58;102141.75;3725917;38;20872;-63
2020/12/07 07:16:18;;;;;;;;;26.25;26.25;;;;;-2.11;71.03;102122.19;3725465;37;20242;-61
2020/12/07 07:18:46;;;;;;;;;20.50;18.00;;;;;-1.93;71.43;102126.69;3725978;37;20249;-64
2020/12/07 07:21:12;;;;;;;;;21.75;20.50;;;;;-1.88;71.37;102130.00;3725468;37;20221;-63
2020/12/07 07:23:43;;;;;;;;;23.75;21.00;;;;;-1.82;71.59;102123.59;3725541;37;20225;-63
2020/12/07 07:26:27;;;;;;;;;31.25;25.50;;;;;-1.80;71.16;102125.25;3725819;38;20235;-62
2020/12/07 07:28:55;;;;;;;;;26.25;20.75;;;;;-1.72;71.19;102130.22;3725921;37;20224;-63
2020/12/07 07:31:24;;;;;;;;;24.25;17.00;;;;;-1.67;70.99;102128.22;3726076;37;20195;-64
2020/12/07 07:33:50;;;;;;;;;22.25;14.75;;;;;-1.56;71.13;102120.63;3726015;37;20170;-64
2020/12/07 07:36:26;;;;;;;;;25.50;20.00;;;;;-1.57;70.63;102107.47;3726089;37;20180;-64
2020/12/07 07:38:59;;;;;;;;;19.00;15.25;;;;;-1.58;70.18;102116.34;3726014;38;20239;-63
2020/12/07 07:41:27;;;;;;;;;23.25;19.25;;;;;-1.48;70.63;102113.19;3725704;38;20159;-62
2020/12/07 07:43:55;;;;;;;;;20.25;16.75;;;;;-1.64;69.57;102117.47;3726135;38;20246;-64
2020/12/07 07:46:24;;;;;;;;;29.50;24.25;;;;;-1.66;70.15;102127.31;3726117;37;20212;-63
2020/12/07 07:49:22;;;;;;;;;22.25;16.00;;;;;-1.81;69.77;102126.16;3725127;38;20215;-62
2020/12/07 08:05:58;;;;;;;;;27.75;24.75;;;;;-1.83;70.78;102120.06;3725789;38;20484;-62
2020/12/07 08:15:46;;;;;;;;;22.00;19.25;;;;;-2.01;70.80;102102.28;3726048;38;20104;-62
2020/12/07 08:18:18;;;;;;;;;35.50;25.75;;;;;-1.98;70.49;102096.84;3725625;38;20704;-62
2020/12/07 08:21:01;;;;;;;;;13.25;10.25;;;;;-2.28;70.32;102084.91;3726439;37;20775;-63
2020/12/07 08:23:32;;;;;;;;;24.50;18.75;;;;;-2.06;70.80;102098.94;3726182;37;20706;-63
2020/12/07 08:26:14;;;;;;;;;26.75;20.25;;;;;-1.97;70.64;102103.88;3727489;37;20676;-62
2020/12/07 08:28:42;;;;;;;;;28.75;21.50;;;;;-2.01;70.40;102092.53;3726213;38;20735;-62
2020/12/07 08:31:13;;;;;;;;;20.50;16.00;;;;;-1.90;70.62;102094.72;3725420;37;20750;-63
2020/12/07 08:33:49;;;;;;;;;23.00;19.75;;;;;-2.09;69.80;102065.50;3726026;38;20643;-62
2020/12/07 08:36:17;;;;;;;;;22.00;20.25;;;;;-1.98;70.33;102080.91;3725851;37;20637;-60
2020/12/07 08:38:46;;;;;;;;;21.00;16.25;;;;;-1.89;70.33;102079.66;3725847;38;20647;-65
2020/12/07 08:41:26;;;;;;;;;23.75;18.50;;;;;-1.79;70.22;102070.37;3725627;38;20631;-62
2020/12/07 08:43:55;;;;;;;;;35.50;26.50;;;;;-1.79;69.99;102051.78;3725937;38;20714;-63
2020/12/07 08:46:24;;;;;;;;;26.50;22.50;;;;;-1.72;70.25;102062.06;3725888;37;20712;-62
2020/12/07 08:48:53;;;;;;;;;18.25;16.25;;;;;-1.97;69.15;102042.84;3726023;37;20632;-62
2020/12/07 08:51:25;;;;;;;;;26.00;21.25;;;;;-2.10;69.80;102057.59;3726115;38;20693;-63
2020/12/07 08:53:52;;;;;;;;;30.25;26.25;;;;;-2.03;70.08;102053.72;3726401;37;20571;-62
2020/12/07 08:56:21;;;;;;;;;27.75;21.75;;;;;-1.84;69.76;102054.66;3726007;38;20712;-63
2020/12/07 08:58:51;;;;;;;;;29.00;25.75;;;;;-1.90;69.81;102054.06;3726363;38;20703;-62
2020/12/07 09:01:18;;;;;;;;;26.50;22.50;;;;;-1.69;69.74;102050.47;3730947;37;20719;-65
2020/12/07 09:03:45;;;;;;;;;19.25;18.50;;;;;-1.64;69.42;102052.91;3732028;38;20686;-62
2020/12/07 09:06:14;;;;;;;;;32.25;26.00;;;;;-1.64;69.15;102052.91;3727792;38;20594;-63
2020/12/07 09:08:43;;;;;;;;;26.00;22.25;;;;;-1.53;68.75;102047.94;3730728;37;20716;-62
2020/12/07 09:11:14;;;;;;;;;22.50;19.00;;;;;-1.44;68.25;102044.88;3728369;38;20703;-63
2020/12/07 09:13:47;;;;;;;;;22.75;20.75;;;;;-1.33;68.35;102048.78;3726057;38;20588;-63
2020/12/07 09:16:13;;;;;;;;;25.75;22.00;;;;;-1.27;67.94;102044.09;3726171;38;20614;-61
2020/12/07 09:18:40;;;;;;;;;26.00;20.50;;;;;-1.24;67.48;102046.63;3725851;38;20592;-62
2020/12/07 09:21:08;;;;;;;;;19.25;17.00;;;;;-1.33;67.37;102039.94;3725994;37;20679;-62
2020/12/07 09:23:36;;;;;;;;;19.00;16.00;;;;;-1.41;67.93;102050.06;3725936;37;20611;-62
2020/12/07 09:26:03;;;;;;;;;23.75;21.75;;;;;-1.44;67.60;102050.19;3725429;37;20592;-63
2020/12/07 09:28:30;;;;;;;;;25.25;20.75;;;;;-1.53;67.59;102054.13;3725755;37;20591;-62
2020/12/07 09:31:01;;;;;;;;;26.75;24.25;;;;;-1.46;67.75;102042.28;3726082;38;20564;-62
2020/12/07 09:33:27;;;;;;;;;33.25;28.00;;;;;-1.46;67.67;102047.59;3725593;38;20589;-62
2020/12/07 09:35:54;;;;;;;;;40.25;33.25;;;;;-1.44;67.44;102039.56;3726051;38;20646;-61
2020/12/07 09:38:20;;;;;;;;;42.50;37.50;;;;;-1.72;67.80;102045.28;3726189;38;20655;-60
2020/12/07 09:40:47;;;;;;;;;22.75;21.25;;;;;-1.67;68.01;102019.41;3725708;38;20656;-60
2020/12/07 09:43:17;;;;;;;;;26.25;20.25;;;;;-1.64;67.69;102016.63;3725899;38;20561;-60
2020/12/07 09:45:45;;;;;;;;;21.75;16.75;;;;;-1.40;67.83;102026.09;3725462;37;20552;-63
2020/12/07 09:48:12;;;;;;;;;19.75;18.25;;;;;-1.26;67.61;102029.91;3725744;37;20563;-60
2020/12/07 09:50:38;;;;;;;;;27.25;23.50;;;;;-1.28;66.36;102027.31;3725753;38;20549;-61
2020/12/07 09:53:15;;;;;;;;;24.50;19.75;;;;;-1.18;67.09;102019.78;3725678;37;20639;-60
2020/12/07 09:55:44;;;;;;;;;25.00;20.25;;;;;-1.07;66.18;102025.44;3725729;37;20569;-60
2020/12/07 09:58:11;;;;;;;;;23.75;19.50;;;;;-1.29;65.80;101999.03;3725333;38;20542;-61
2020/12/07 10:00:38;;;;;;;;;27.00;23.75;;;;;-1.14;65.57;102024.00;3725746;37;20547;-61
2020/12/07 10:03:05;;;;;;;;;24.25;22.50;;;;;-1.36;65.57;102017.03;3725778;37;20643;-60
2020/12/07 10:05:32;;;;;;;;;33.00;30.00;;;;;-1.22;66.12;102016.41;3725818;38;20597;-59
2020/12/07 10:07:58;;;;;;;;;24.00;19.75;;;;;-1.28;65.47;102011.38;3725852;38;20419;-59
2020/12/07 10:10:24;;;;;;;;;25.25;22.25;;;;;-1.27;66.30;102001.62;3726403;38;20512;-61
2020/12/07 10:12:51;;;;;;;;;27.25;24.75;;;;;-1.38;65.73;102005.63;3726089;37;20532;-62
2020/12/07 10:15:19;;;;;;;;;24.25;21.75;;;;;-1.22;66.16;101996.94;3725867;37;20514;-62
2020/12/07 10:17:50;;;;;;;;;26.75;21.75;;;;;-1.19;65.83;102000.31;3725877;38;20508;-60
2020/12/07 10:20:16;;;;;;;;;28.00;22.75;;;;;-1.24;65.82;102004.97;3725823;37;20520;-60
2020/12/07 10:22:43;;;;;;;;;25.00;19.75;;;;;-1.27;65.65;102002.47;3725643;38;20513;-58
2020/12/07 10:25:11;;;;;;;;;21.25;19.25;;;;;-1.24;65.55;101990.84;3725674;38;20603;-60
2020/12/07 10:27:39;;;;;;;;;19.75;14.50;;;;;-1.56;65.67;101971.12;3725286;38;20515;-60
2020/12/07 10:30:05;;;;;;;;;26.75;21.25;;;;;-1.60;65.96;101981.03;3725363;37;20517;-60
2020/12/07 10:32:33;;;;;;;;;27.50;25.00;;;;;-1.39;66.03;101984.47;3725743;38;20604;-59
2020/12/07 10:35:00;;;;;;;;;39.00;24.50;;;;;-1.28;66.00;101982.16;3725953;37;20480;-61
2020/12/07 10:37:27;;;;;;;;;23.75;20.00;;;;;-1.33;65.74;101984.16;3726052;38;20580;-62
2020/12/07 10:39:55;;;;;;;;;20.75;19.00;;;;;-1.32;65.42;101969.97;3726064;37;20474;-59
2020/12/07 10:42:21;;;;;;;;;21.00;20.00;;;;;-1.48;65.50;101966.28;3725481;38;20483;-60
2020/12/07 10:44:47;;;;;;;;;27.00;24.25;;;;;-1.35;66.11;101967.44;3725949;37;20500;-60
2020/12/07 10:47:14;;;;;;;;;22.75;20.00;;;;;-1.35;65.93;101947.06;3725868;38;20577;-62
2020/12/07 10:49:40;;;;;;;;;28.25;23.00;;;;;-1.33;65.21;101953.16;3725692;38;20481;-60
2020/12/07 10:52:07;;;;;;;;;17.50;16.00;;;;;-1.46;64.96;101961.78;3725312;37;20456;-63
2020/12/07 10:54:39;;;;;;;;;21.75;20.00;;;;;-1.44;65.26;101973.19;3727545;37;20557;-61
2020/12/07 10:57:06;;;;;;;;;28.25;18.25;;;;;-1.52;65.51;101976.19;3728869;37;20815;-60
2020/12/07 10:59:34;;;;;;;;;19.00;19.00;;;;;-1.79;65.58;101953.59;3731648;37;20487;-61
2020/12/07 11:02:02;;;;;;;;;26.75;21.25;;;;;-1.80;65.62;101965.16;3728369;37;20455;-61
2020/12/07 11:04:29;;;;;;;;;27.00;21.00;;;;;-1.77;66.49;101968.53;3730537;37;20494;-60
2020/12/07 11:06:58;;;;;;;;;23.75;16.50;;;;;-1.94;66.30;101959.59;3732704;38;20467;-62
2020/12/07 11:09:26;;;;;;;;;19.25;15.75;;;;;-1.99;66.51;101967.78;3733694;37;20435;-62
2020/12/07 11:11:57;;;;;;;;;24.25;20.00;;;;;-2.09;66.97;101951.44;3728416;38;20458;-61
2020/12/07 11:14:24;;;;;;;;;33.25;23.50;;;;;-1.84;67.24;101961.78;3726363;38;20528;-61
2020/12/07 11:16:51;;;;;;;;;19.75;18.75;;;;;-1.81;66.88;101974.06;3725657;38;20535;-60
2020/12/07 11:19:18;;;;;;;;;26.25;22.50;;;;;-2.01;66.61;101959.03;3725795;37;20431;-62
2020/12/07 11:21:45;;;;;;;;;19.75;17.00;;;;;-2.03;67.65;101967.03;3725700;37;20442;-61
2020/12/07 11:24:13;;;;;;;;;20.75;19.25;;;;;-1.96;67.32;101964.12;3726009;37;20422;-61
2020/12/07 11:26:39;;;;;;;;;23.75;19.75;;;;;-1.96;67.49;101964.97;3725792;38;20400;-60
2020/12/07 11:29:05;;;;;;;;;27.75;19.00;;;;;-2.08;67.63;101962.91;3725836;37;20515;-61
2020/12/07 11:31:32;;;;;;;;;20.00;18.75;;;;;-2.12;67.57;101956.88;3725816;38;20309;-62
2020/12/07 11:33:58;;;;;;;;;21.75;19.75;;;;;-2.01;67.87;101957.22;3725778;37;20499;-62
2020/12/07 11:36:25;;;;;;;;;19.75;16.00;;;;;-2.07;67.67;101957.50;3725670;37;20416;-62
2020/12/07 11:44:42;;;;;;;;;22.50;16.50;;;;;-2.02;67.91;101962.59;3725699;37;20411;-62
2020/12/07 11:47:11;;;;;;;;;21.00;18.50;;;;;-2.08;67.53;101965.56;3725308;37;20403;-61
2020/12/07 11:49:37;;;;;;;;;23.00;19.75;;;;;-2.11;67.93;101965.69;3725195;37;20390;-61
2020/12/07 11:52:05;;;;;;;;;23.75;18.00;;;;;-2.01;67.78;101961.69;3725185;37;20369;-61